createdAt,value
2022-08-20T00:01:21.586Z,100634.97
2022-08-20T00:03:50.316Z,100632.28
2022-08-20T00:06:23.775Z,100627.06
2022-08-20T00:08:52.441Z,100627.75
2022-08-20T00:11:25.730Z,100629.81
2022-08-20T00:13:58.390Z,100637.50
2022-08-20T00:16:32.884Z,100652.72
2022-08-20T00:19:01.645Z,100651.34
2022-08-20T00:21:31.445Z,100651.50
2022-08-20T00:24:00.186Z,100656.34
2022-08-20T00:26:29.674Z,100645.28
2022-08-20T00:28:57.899Z,100639.69
2022-08-20T00:31:26.691Z,100637.94
2022-08-20T00:33:55.078Z,100635.97
2022-08-20T00:36:32.169Z,100632.44
2022-08-20T00:39:02.059Z,100637.50
2022-08-20T00:41:31.993Z,100640.22
2022-08-20T00:44:10.539Z,100634.50
2022-08-20T00:46:39.702Z,100633.03
2022-08-20T00:49:10.305Z,100630.59
2022-08-20T00:51:43.851Z,100624.34
2022-08-20T00:54:16.466Z,100627.38
2022-08-20T00:56:50.429Z,100633.13
2022-08-20T00:59:22.357Z,100647.09
2022-08-20T01:01:55.793Z,100652.00
2022-08-20T01:04:26.396Z,100658.75
2022-08-20T01:06:55.263Z,100644.25
2022-08-20T01:09:49.426Z,100652.00
2022-08-20T01:12:14.630Z,100640.69
2022-08-20T01:14:45.856Z,100648.13
2022-08-20T01:17:18.154Z,100657.03
2022-08-20T01:19:52.587Z,100654.34
2022-08-20T01:22:41.374Z,100661.75
2022-08-20T01:25:18.087Z,100672.22
2022-08-20T01:27:55.221Z,100660.81
2022-08-20T01:30:25.803Z,100657.72
2022-08-20T01:32:54.001Z,100666.53
2022-08-20T01:35:23.499Z,100667.88
2022-08-20T01:37:52.484Z,100677.16
2022-08-20T01:40:41.303Z,100676.13
2022-08-20T01:43:11.480Z,100680.59
2022-08-20T01:45:41.309Z,100677.63
2022-08-20T01:48:09.775Z,100678.25
2022-08-20T01:50:42.946Z,100684.59
2022-08-20T01:53:19.015Z,100683.59
2022-08-20T01:55:47.288Z,100690.00
2022-08-20T01:58:17.106Z,100694.16
2022-08-20T02:00:45.291Z,100697.69
2022-08-20T02:03:13.502Z,100697.00
2022-08-20T02:05:42.067Z,100704.59
2022-08-20T02:08:10.308Z,100702.38
2022-08-20T02:10:38.465Z,100699.00
2022-08-20T02:13:09.024Z,100705.69
2022-08-20T02:15:39.795Z,100711.38
2022-08-20T02:18:13.982Z,100719.94
2022-08-20T02:20:43.753Z,100726.38
2022-08-20T02:23:13.247Z,100723.78
2022-08-20T02:25:44.652Z,100726.91
2022-08-20T02:28:15.503Z,100720.03
2022-08-20T02:30:48.022Z,100728.28
2022-08-20T02:33:19.237Z,100725.22
2022-08-20T02:35:50.177Z,100723.75
2022-08-20T02:38:18.492Z,100726.59
2022-08-20T02:40:49.044Z,100717.31
2022-08-20T02:43:18.829Z,100720.13
2022-08-20T02:45:48.759Z,100719.94
2022-08-20T02:48:21.006Z,100717.81
2022-08-20T02:50:55.084Z,100719.72
2022-08-20T02:53:24.429Z,100712.69
2022-08-20T02:55:52.948Z,100703.22
2022-08-20T02:58:21.894Z,100703.22
2022-08-20T03:00:51.754Z,100694.28
2022-08-20T03:03:22.547Z,100693.47
2022-08-20T03:05:52.974Z,100688.06
2022-08-20T03:08:22.287Z,100685.53
2022-08-20T03:10:51.418Z,100682.41
2022-08-20T03:13:21.199Z,100688.28
2022-08-20T03:15:58.418Z,100689.59
2022-08-20T03:18:30.161Z,100684.88
2022-08-20T03:20:58.442Z,100688.41
2022-08-20T03:23:26.899Z,100689.94
2022-08-20T03:25:55.681Z,100682.00
2022-08-20T03:28:24.010Z,100694.91
2022-08-20T03:30:54.738Z,100703.91
2022-08-20T03:33:24.124Z,100719.19
2022-08-20T03:35:53.146Z,100728.66
2022-08-20T03:38:32.270Z,100753.09
2022-08-20T03:41:02.409Z,100765.31
2022-08-20T03:43:31.542Z,100777.06
2022-08-20T03:46:01.125Z,100793.00
2022-08-20T03:48:29.474Z,100806.78
2022-08-20T03:51:00.746Z,100815.22
2022-08-20T03:53:31.603Z,100829.59
2022-08-20T03:56:03.265Z,100843.66
2022-08-20T03:58:36.364Z,100852.34
2022-08-20T04:01:32.105Z,100863.66
2022-08-20T04:03:58.873Z,100884.34
2022-08-20T04:06:27.769Z,100884.09
2022-08-20T04:08:56.378Z,100882.94
2022-08-20T04:11:24.801Z,100890.41
2022-08-20T04:13:53.409Z,100896.66
2022-08-20T04:16:23.951Z,100910.69
2022-08-20T04:18:58.587Z,100914.34
2022-08-20T04:21:32.862Z,100916.31
2022-08-20T04:24:03.235Z,100910.38
2022-08-20T04:26:31.992Z,100916.06
2022-08-20T04:29:00.265Z,100927.09
2022-08-20T04:31:33.906Z,100927.66
2022-08-20T04:34:03.011Z,100922.84
2022-08-20T04:36:31.636Z,100923.09
2022-08-20T04:38:59.933Z,100920.13
2022-08-20T04:41:28.959Z,100918.41
2022-08-20T04:43:58.088Z,100908.66
2022-08-20T04:46:29.082Z,100912.50
2022-08-20T04:49:00.731Z,100923.84
2022-08-20T04:51:29.075Z,100923.13
2022-08-20T04:54:00.154Z,100935.88
2022-08-20T04:56:31.977Z,100928.59
2022-08-20T04:59:02.352Z,100933.44
2022-08-20T05:01:30.615Z,100934.28
2022-08-20T05:04:00.638Z,100936.19
2022-08-20T05:06:31.181Z,100934.53
2022-08-20T05:09:01.319Z,100930.19
2022-08-20T05:11:35.750Z,100948.53
2022-08-20T05:14:06.854Z,100946.44
2022-08-20T05:16:40.417Z,100946.84
2022-08-20T05:19:12.526Z,100943.84
2022-08-20T05:21:41.595Z,100940.47
2022-08-20T05:24:11.357Z,100931.69
2022-08-20T05:26:39.726Z,100930.81
2022-08-20T05:29:08.166Z,100933.91
2022-08-20T05:31:37.527Z,100925.44
2022-08-20T05:34:11.066Z,100919.34
2022-08-20T05:36:43.754Z,100921.22
2022-08-20T05:39:13.324Z,100917.69
2022-08-20T05:41:42.161Z,100920.38
2022-08-20T05:44:13.575Z,100931.59
2022-08-20T05:46:43.920Z,100928.91
2022-08-20T05:49:14.497Z,100935.38
2022-08-20T05:51:44.350Z,100933.69
2022-08-20T05:54:13.946Z,100936.84
2022-08-20T05:56:42.702Z,100944.47
2022-08-20T05:59:12.472Z,100951.78
2022-08-20T06:01:41.970Z,100948.84
2022-08-20T06:04:25.216Z,100945.44
2022-08-20T06:06:57.843Z,100930.84
2022-08-20T06:09:30.906Z,100938.19
2022-08-20T06:12:03.072Z,100944.66
2022-08-20T06:14:31.981Z,100938.53
2022-08-20T06:17:04.885Z,100933.31
2022-08-20T06:19:33.974Z,100942.03
2022-08-20T06:22:18.398Z,100932.94
2022-08-20T06:24:53.321Z,100932.31
2022-08-20T06:27:22.158Z,100930.53
2022-08-20T06:29:50.442Z,100925.31
2022-08-20T06:32:19.851Z,100922.56
2022-08-20T06:34:57.081Z,100927.94
2022-08-20T06:37:31.054Z,100937.09
2022-08-20T06:40:02.524Z,100942.19
2022-08-20T06:42:30.741Z,100931.50
2022-08-20T06:45:00.526Z,100931.72
2022-08-20T06:47:29.153Z,100914.97
2022-08-20T06:49:57.331Z,100916.56
2022-08-20T06:52:35.004Z,100909.38
2022-08-20T06:55:16.582Z,100914.53
2022-08-20T06:57:44.819Z,100913.25
2022-08-20T07:00:17.797Z,100899.03
2022-08-20T07:02:48.118Z,100897.28
2022-08-20T07:05:16.905Z,100897.03
2022-08-20T07:07:49.410Z,100892.94
2022-08-20T07:10:19.555Z,100893.56
2022-08-20T07:12:50.552Z,100878.78
2022-08-20T07:15:21.178Z,100872.59
2022-08-20T07:17:51.338Z,100870.31
2022-08-20T07:20:20.025Z,100881.75
2022-08-20T07:22:50.155Z,100895.44
2022-08-20T07:25:21.278Z,100903.03
2022-08-20T07:27:52.650Z,100903.78
2022-08-20T07:30:56.618Z,100894.47
2022-08-20T07:33:28.134Z,100894.72
2022-08-20T07:35:57.002Z,100892.41
2022-08-20T07:38:28.096Z,100882.47
2022-08-20T07:40:59.218Z,100883.31
2022-08-20T07:43:28.337Z,100886.88
2022-08-20T07:46:00.663Z,100876.78
2022-08-20T07:48:32.199Z,100892.31
2022-08-20T07:51:03.451Z,100898.56
2022-08-20T07:53:35.939Z,100896.81
2022-08-20T07:56:07.233Z,100876.13
2022-08-20T07:58:38.266Z,100868.28
2022-08-20T08:01:07.705Z,100879.53
2022-08-20T08:03:49.140Z,100870.31
2022-08-20T08:06:30.554Z,100865.44
2022-08-20T08:09:05.014Z,100876.38
2022-08-20T08:11:35.756Z,100881.84
2022-08-20T08:14:06.286Z,100879.97
2022-08-20T08:16:35.223Z,100878.06
2022-08-20T08:19:07.539Z,100863.25
2022-08-20T08:21:35.957Z,100860.03
2022-08-20T08:24:05.897Z,100859.00
2022-08-20T08:26:34.147Z,100847.56
2022-08-20T08:29:02.581Z,100850.91
2022-08-20T08:31:30.840Z,100837.13
2022-08-20T08:33:59.031Z,100842.16
2022-08-20T08:36:27.409Z,100839.03
2022-08-20T08:38:56.568Z,100826.84
2022-08-20T08:41:31.878Z,100827.91
2022-08-20T08:44:08.211Z,100825.41
2022-08-20T08:46:41.652Z,100830.25
2022-08-20T08:49:13.206Z,100827.50
2022-08-20T08:51:44.008Z,100827.34
2022-08-20T08:54:17.214Z,100821.63
2022-08-20T08:56:49.821Z,100833.78
2022-08-20T08:59:20.567Z,100830.00
2022-08-20T09:01:55.132Z,100832.66
2022-08-20T09:04:31.433Z,100824.66
2022-08-20T09:07:02.633Z,100822.25
2022-08-20T09:09:33.750Z,100828.63
2022-08-20T09:12:08.627Z,100834.63
2022-08-20T09:14:37.975Z,100830.25
2022-08-20T09:17:07.404Z,100830.06
2022-08-20T09:19:35.630Z,100838.03
2022-08-20T09:22:09.534Z,100837.03
2022-08-20T09:24:38.867Z,100838.78
2022-08-20T09:27:08.415Z,100850.75
2022-08-20T09:29:36.679Z,100852.22
2022-08-20T09:32:06.767Z,100852.56
2022-08-20T09:34:37.246Z,100844.31
2022-08-20T09:37:06.065Z,100843.97
2022-08-20T09:39:34.319Z,100853.59
2022-08-20T09:42:13.104Z,100849.38
2022-08-20T09:44:42.221Z,100852.16
2022-08-20T09:47:10.755Z,100871.97
2022-08-20T09:49:39.159Z,100863.81
2022-08-20T09:52:10.039Z,100874.06
2022-08-20T09:54:46.423Z,100872.44
2022-08-20T09:57:17.057Z,100882.53
2022-08-20T09:59:49.107Z,100878.78
2022-08-20T10:02:17.297Z,100893.78
2022-08-20T10:04:45.621Z,100898.63
2022-08-20T10:07:16.034Z,100898.47
2022-08-20T10:09:44.632Z,100899.25
2022-08-20T10:12:13.330Z,100893.00
2022-08-20T10:14:43.029Z,100881.16
2022-08-20T10:17:11.299Z,100868.94
2022-08-20T10:19:39.742Z,100866.66
2022-08-20T10:22:08.121Z,100872.03
2022-08-20T10:24:36.365Z,100867.75
2022-08-20T10:27:04.920Z,100871.03
2022-08-20T10:29:33.650Z,100868.94
2022-08-20T10:32:12.348Z,100863.19
2022-08-20T10:34:41.199Z,100872.09
2022-08-20T10:37:10.180Z,100874.75
2022-08-20T10:39:38.560Z,100867.13
2022-08-20T10:42:07.079Z,100856.56
2022-08-20T10:44:35.311Z,100852.22
2022-08-20T10:47:19.937Z,100853.94
2022-08-20T10:49:48.459Z,100834.81
2022-08-20T10:52:16.700Z,100827.25
2022-08-20T10:54:45.181Z,100828.44
2022-08-20T10:57:15.596Z,100841.09
2022-08-20T10:59:46.266Z,100842.78
2022-08-20T11:02:16.743Z,100842.78
2022-08-20T11:04:45.843Z,100843.13
2022-08-20T11:07:17.007Z,100839.38
2022-08-20T11:09:46.113Z,100846.78
2022-08-20T11:12:14.775Z,100842.03
2022-08-20T11:14:42.953Z,100845.16
2022-08-20T11:17:11.746Z,100844.31
2022-08-20T11:19:42.520Z,100845.84
2022-08-20T11:22:12.090Z,100849.56
2022-08-20T11:24:40.319Z,100850.28
2022-08-20T11:27:09.514Z,100831.88
2022-08-20T11:29:39.151Z,100843.34
2022-08-20T11:32:08.710Z,100853.09
2022-08-20T11:34:36.915Z,100850.06
2022-08-20T11:37:06.450Z,100841.41
2022-08-20T11:39:37.519Z,100839.63
2022-08-20T11:42:09.606Z,100853.94
2022-08-20T11:44:38.159Z,100845.69
2022-08-20T11:47:08.718Z,100848.19
2022-08-20T11:49:38.576Z,100849.91
2022-08-20T11:52:08.297Z,100848.53
2022-08-20T11:54:40.412Z,100858.56
2022-08-20T11:57:08.990Z,100861.75
2022-08-20T11:59:37.153Z,100866.59
2022-08-20T12:02:12.143Z,100863.53
2022-08-20T12:04:40.741Z,100858.91
2022-08-20T12:07:11.523Z,100858.75
2022-08-20T12:09:50.649Z,100844.63
2022-08-20T12:12:20.543Z,100855.25
2022-08-20T12:14:48.869Z,100843.84
2022-08-20T12:17:21.350Z,100842.81
2022-08-20T12:19:49.520Z,100837.50
2022-08-20T12:22:25.157Z,100839.31
2022-08-20T12:24:54.561Z,100836.00
2022-08-20T12:27:24.889Z,100830.06
2022-08-20T12:29:54.821Z,100831.06
2022-08-20T12:32:23.665Z,100830.56
2022-08-20T12:34:52.073Z,100837.31
2022-08-20T12:37:25.225Z,100838.00
2022-08-20T12:39:55.804Z,100836.66
2022-08-20T12:42:25.093Z,100839.19
2022-08-20T12:44:53.621Z,100836.69
2022-08-20T12:47:23.824Z,100833.66
2022-08-20T12:49:54.101Z,100825.06
2022-08-20T12:52:25.931Z,100817.63
2022-08-20T12:54:54.883Z,100812.88
2022-08-20T12:57:25.538Z,100824.19
2022-08-20T12:59:53.646Z,100810.53
2022-08-20T13:02:22.081Z,100820.66
2022-08-20T13:04:50.303Z,100817.44
2022-08-20T13:07:18.545Z,100819.00
2022-08-20T13:09:49.160Z,100821.00
2022-08-20T13:12:17.566Z,100828.47
2022-08-20T13:14:45.724Z,100824.91
2022-08-20T13:17:13.979Z,100819.84
2022-08-20T13:19:45.056Z,100825.94
2022-08-20T13:22:14.139Z,100823.38
2022-08-20T13:24:43.074Z,100831.59
2022-08-20T13:27:14.543Z,100834.84
2022-08-20T13:29:47.548Z,100841.97
2022-08-20T13:32:16.051Z,100832.66
2022-08-20T13:34:45.263Z,100833.16
2022-08-20T13:37:14.643Z,100837.31
2022-08-20T13:39:43.654Z,100838.16
2022-08-20T13:42:14.412Z,100836.47
2022-08-20T13:44:43.415Z,100845.94
2022-08-20T13:47:19.684Z,100843.78
2022-08-20T13:49:49.495Z,100845.28
2022-08-20T13:52:17.628Z,100834.97
2022-08-20T13:54:45.868Z,100831.38
2022-08-20T13:57:17.778Z,100835.75
2022-08-20T13:59:48.128Z,100839.72
2022-08-20T14:02:19.091Z,100829.56
2022-08-20T14:04:48.635Z,100826.56
2022-08-20T14:07:19.685Z,100828.44
2022-08-20T14:09:50.356Z,100837.22
2022-08-20T14:12:20.571Z,100841.41
2022-08-20T14:14:49.022Z,100825.25
2022-08-20T14:17:19.168Z,100834.38
2022-08-20T14:19:49.107Z,100830.66
2022-08-20T14:22:18.593Z,100825.25
2022-08-20T14:24:50.338Z,100832.03
2022-08-20T14:27:21.816Z,100838.41
2022-08-20T14:29:51.384Z,100835.13
2022-08-20T14:32:19.803Z,100829.66
2022-08-20T14:34:48.050Z,100827.81
2022-08-20T14:39:47.519Z,100845.59
2022-08-20T14:42:15.968Z,100846.66
2022-08-20T14:44:45.782Z,100846.88
2022-08-20T14:47:16.461Z,100839.97
2022-08-20T14:49:46.020Z,100830.66
2022-08-20T14:52:16.453Z,100833.69
2022-08-20T14:54:45.737Z,100835.38
2022-08-20T14:57:16.305Z,100844.97
2022-08-20T14:59:46.733Z,100848.03
2022-08-20T15:02:17.753Z,100839.69
2022-08-20T15:04:52.243Z,100844.44
2022-08-20T15:07:25.617Z,100843.06
2022-08-20T15:09:54.774Z,100842.66
2022-08-20T15:12:23.454Z,100851.91
2022-08-20T15:14:53.001Z,100858.66
2022-08-20T15:17:22.936Z,100865.13
2022-08-20T15:19:51.398Z,100861.38
2022-08-20T15:22:20.021Z,100859.84
2022-08-20T15:24:48.875Z,100864.28
2022-08-20T15:27:22.665Z,100874.19
2022-08-20T15:29:53.787Z,100887.47
2022-08-20T15:32:22.847Z,100887.06
2022-08-20T15:34:51.087Z,100884.81
2022-08-20T15:37:21.676Z,100877.25
2022-08-20T15:39:51.958Z,100876.75
2022-08-20T15:42:22.246Z,100883.81
2022-08-20T15:44:50.910Z,100881.25
2022-08-20T15:47:27.280Z,100885.59
2022-08-20T15:50:03.634Z,100889.28
2022-08-20T15:52:41.832Z,100887.91
2022-08-20T15:55:12.818Z,100893.53
2022-08-20T15:57:50.830Z,100895.91
2022-08-20T16:00:21.688Z,100890.91
2022-08-20T16:03:19.147Z,100892.59
2022-08-20T16:05:55.333Z,100893.63
2022-08-20T16:08:44.198Z,100903.84
2022-08-20T16:11:21.077Z,100906.41
2022-08-20T16:13:52.095Z,100914.34
2022-08-20T16:16:26.562Z,100917.44
2022-08-20T16:18:56.316Z,100920.50
2022-08-20T16:21:30.443Z,100936.81
2022-08-20T16:23:58.817Z,100934.91
2022-08-20T16:26:47.598Z,100955.47
2022-08-20T16:29:20.575Z,100948.06
2022-08-20T16:31:54.467Z,100941.16
2022-08-20T16:34:33.637Z,100937.75
2022-08-20T16:37:12.912Z,100940.78
2022-08-20T16:39:48.442Z,100949.84
2022-08-20T16:42:24.219Z,100954.72
2022-08-20T16:44:56.136Z,100978.28
2022-08-20T16:47:29.300Z,100982.06
2022-08-20T16:50:04.596Z,100971.81
2022-08-20T16:52:32.973Z,100978.03
2022-08-20T16:55:01.187Z,100972.31
2022-08-20T16:57:30.355Z,100977.56
2022-08-20T17:00:08.895Z,100975.34
2022-08-20T17:02:37.115Z,100968.00
2022-08-20T17:05:07.377Z,100972.09
2022-08-20T17:07:46.160Z,100970.09
2022-08-20T17:10:20.856Z,100969.00
2022-08-20T17:12:54.391Z,100975.31
2022-08-20T17:15:26.630Z,100972.78
2022-08-20T17:17:55.915Z,100966.41
2022-08-20T17:20:28.033Z,100971.25
2022-08-20T17:23:10.649Z,100969.25
2022-08-20T17:25:39.343Z,100972.72
2022-08-20T17:28:15.721Z,100966.91
2022-08-20T17:30:45.680Z,100971.59
2022-08-20T17:33:25.228Z,100964.16
2022-08-20T17:35:56.778Z,100974.94
2022-08-20T17:38:33.047Z,100976.03
2022-08-20T17:41:03.800Z,100965.31
2022-08-20T17:43:34.383Z,100962.53
2022-08-20T17:46:07.619Z,100960.00
2022-08-20T17:48:44.824Z,100970.59
2022-08-20T17:51:20.153Z,100978.66
2022-08-20T17:53:52.655Z,100979.75
2022-08-20T17:56:24.932Z,100985.91
2022-08-20T17:58:58.166Z,100997.88
2022-08-20T18:01:32.130Z,101003.25
2022-08-20T18:04:00.405Z,101008.38
2022-08-20T18:06:35.950Z,101000.41
2022-08-20T18:09:11.138Z,101014.88
2022-08-20T18:11:45.190Z,101009.81
2022-08-20T18:14:26.903Z,101022.81
2022-08-20T18:17:11.735Z,101026.53
2022-08-20T18:20:12.392Z,101033.34
2022-08-20T18:22:51.065Z,101046.94
2022-08-20T18:25:29.157Z,101044.69
2022-08-20T18:28:03.363Z,101046.22
2022-08-20T18:30:33.356Z,101044.38
2022-08-20T18:33:05.519Z,101051.47
2022-08-20T18:35:37.502Z,101050.63
2022-08-20T18:38:26.973Z,101065.69
2022-08-20T18:41:06.609Z,101071.66
2022-08-20T18:43:35.680Z,101069.22
2022-08-20T18:46:12.782Z,101082.25
2022-08-20T18:48:52.068Z,101081.56
2022-08-20T18:51:25.096Z,101089.47
2022-08-20T18:53:54.822Z,101094.44
2022-08-20T18:56:33.196Z,101094.25
2022-08-20T18:59:06.269Z,101084.44
2022-08-20T19:01:37.457Z,101074.69
2022-08-20T19:04:23.035Z,101074.59
2022-08-20T19:06:57.486Z,101083.50
2022-08-20T19:09:43.937Z,101077.28
2022-08-20T19:12:27.382Z,101075.84
2022-08-20T19:15:00.874Z,101082.78
2022-08-20T19:17:45.750Z,101082.06
2022-08-20T19:20:19.121Z,101089.47
2022-08-20T19:22:49.909Z,101084.97
2022-08-20T19:25:30.725Z,101097.97
2022-08-20T19:28:01.577Z,101086.34
2022-08-20T19:30:33.266Z,101090.75
2022-08-20T19:33:02.451Z,101094.31
2022-08-20T19:35:30.742Z,101089.22
2022-08-20T19:37:59.479Z,101092.06
2022-08-20T19:40:32.077Z,101091.91
2022-08-20T19:43:03.282Z,101090.59
2022-08-20T19:45:42.634Z,101105.47
2022-08-20T19:48:27.108Z,101095.44
2022-08-20T19:51:06.367Z,101100.69
2022-08-20T19:53:36.914Z,101096.00
2022-08-20T19:56:11.479Z,101102.66
2022-08-20T19:58:40.249Z,101116.97
2022-08-20T20:01:11.982Z,101109.34
2022-08-20T20:03:40.292Z,101100.13
2022-08-20T20:06:16.565Z,101102.56
2022-08-20T20:08:52.781Z,101117.00
2022-08-20T20:11:27.928Z,101110.19
2022-08-20T20:14:03.028Z,101122.94
2022-08-20T20:16:32.649Z,101123.94
2022-08-20T20:19:24.894Z,101130.28
2022-08-20T20:21:51.769Z,101124.94
2022-08-20T20:24:25.657Z,101117.69
2022-08-20T20:26:55.759Z,101116.13
2022-08-20T20:29:26.872Z,101118.84
2022-08-20T20:31:58.073Z,101122.78
2022-08-20T20:34:28.594Z,101127.34
2022-08-20T20:37:07.355Z,101135.13
2022-08-20T20:39:38.317Z,101135.81
2022-08-20T20:42:11.272Z,101139.50
2022-08-20T20:44:41.745Z,101140.22
2022-08-20T20:47:20.205Z,101143.91
2022-08-20T20:49:52.258Z,101145.88
2022-08-20T20:52:23.523Z,101140.22
2022-08-20T20:54:52.962Z,101147.47
2022-08-20T20:57:38.007Z,101150.00
2022-08-20T21:00:11.291Z,101154.09
2022-08-20T21:02:39.629Z,101171.38
2022-08-20T21:05:08.514Z,101157.78
2022-08-20T21:07:45.990Z,101161.47
2022-08-20T21:10:21.293Z,101166.84
2022-08-20T21:12:53.123Z,101166.69
2022-08-20T21:15:23.786Z,101171.38
2022-08-20T21:17:52.663Z,101170.25
2022-08-20T21:20:22.386Z,101162.34
2022-08-20T21:22:50.609Z,101155.53
2022-08-20T21:25:20.396Z,101146.44
2022-08-20T21:27:52.169Z,101133.41
2022-08-20T21:30:22.453Z,101140.22
2022-08-20T21:32:51.132Z,101141.91
2022-08-20T21:35:19.603Z,101130.31
2022-08-20T21:37:47.842Z,101141.34
2022-08-20T21:40:18.122Z,101137.66
2022-08-20T21:42:51.493Z,101138.50
2022-08-20T21:45:20.095Z,101152.94
2022-08-20T21:47:49.293Z,101154.38
2022-08-20T21:50:19.811Z,101165.84
2022-08-20T21:52:59.387Z,101166.97
2022-08-20T21:55:30.470Z,101159.75
2022-08-20T21:58:00.084Z,101166.56
2022-08-20T22:00:54.344Z,101165.13
2022-08-20T22:03:24.727Z,101166.41
2022-08-20T22:05:54.087Z,101160.75
2022-08-20T22:08:24.174Z,101159.19
2022-08-20T22:10:57.734Z,101161.31
2022-08-20T22:13:31.430Z,101161.72
2022-08-20T22:16:00.381Z,101160.88
2022-08-20T22:18:28.814Z,101162.00
2022-08-20T22:20:57.316Z,101160.28
2022-08-20T22:23:25.898Z,101163.28
2022-08-20T22:25:54.095Z,101162.84
2022-08-20T22:28:23.183Z,101159.75
2022-08-20T22:30:52.698Z,101149.41
2022-08-20T22:33:23.287Z,101154.94
2022-08-20T22:35:54.368Z,101146.28
2022-08-20T22:38:23.157Z,101147.44
2022-08-20T22:40:51.482Z,101156.63
2022-08-20T22:43:19.848Z,101149.81
2022-08-20T22:45:51.538Z,101152.94
2022-08-20T22:48:21.814Z,101161.19
2022-08-20T22:50:51.242Z,101157.78
2022-08-20T22:53:21.727Z,101157.91
2022-08-20T22:55:50.309Z,101156.63
2022-08-20T22:58:19.813Z,101163.69
2022-08-20T23:00:59.637Z,101173.63
2022-08-20T23:03:39.145Z,101172.94
2022-08-20T23:06:10.347Z,101189.34
2022-08-20T23:08:38.950Z,101184.97
2022-08-20T23:11:07.396Z,101188.38
2022-08-20T23:13:35.629Z,101193.03
2022-08-20T23:16:05.036Z,101194.88
2022-08-20T23:18:34.834Z,101201.66
2022-08-20T23:21:03.765Z,101192.63
2022-08-20T23:23:32.292Z,101194.59
2022-08-20T23:26:01.591Z,101195.00
2022-08-20T23:28:29.759Z,101189.38
2022-08-20T23:30:57.979Z,101188.63
2022-08-20T23:33:26.372Z,101183.13
2022-08-20T23:36:04.527Z,101186.22
2022-08-20T23:38:32.713Z,101177.03
2022-08-20T23:41:00.955Z,101171.34
2022-08-20T23:43:29.171Z,101160.59
2022-08-20T23:46:00.134Z,101159.63
2022-08-20T23:48:28.303Z,101150.28
2022-08-20T23:50:57.902Z,101149.50
2022-08-20T23:53:26.190Z,101153.16
2022-08-20T23:55:54.402Z,101157.44
2022-08-20T23:58:22.625Z,101161.97
